createdAt,value
2022-10-22T00:00:15.460Z,2.10
2022-10-22T00:02:43.250Z,1.90
2022-10-22T00:05:10.931Z,1.92
2022-10-22T00:07:38.225Z,1.80
2022-10-22T00:10:07.405Z,2.00
2022-10-22T00:12:34.612Z,2.08
2022-10-22T00:15:01.824Z,2.22
2022-10-22T00:17:29.014Z,2.25
2022-10-22T00:19:55.837Z,2.22
2022-10-22T00:22:22.731Z,2.20
2022-10-22T00:24:49.523Z,1.85
2022-10-22T00:27:16.338Z,2.28
2022-10-22T00:29:43.480Z,1.95
2022-10-22T00:32:10.406Z,2.20
2022-10-22T00:34:37.646Z,1.95
2022-10-22T00:37:04.510Z,2.25
2022-10-22T00:39:32.333Z,2.25
2022-10-22T00:42:00.010Z,1.92
2022-10-22T00:45:07.073Z,1.73
2022-10-22T00:48:01.437Z,2.25
2022-10-22T00:50:35.680Z,1.88
2022-10-22T00:53:06.618Z,1.90
2022-10-22T00:55:34.262Z,1.83
2022-10-22T00:58:02.325Z,2.00
2022-10-22T01:00:29.361Z,2.05
2022-10-22T01:02:58.207Z,2.42
2022-10-22T01:05:33.466Z,1.77
2022-10-22T01:08:00.397Z,2.00
2022-10-22T01:10:58.227Z,2.20
2022-10-22T01:14:07.307Z,2.28
2022-10-22T01:16:53.065Z,2.30
2022-10-22T01:20:00.284Z,2.10
2022-10-22T01:22:44.451Z,2.28
2022-10-22T01:25:50.723Z,2.10
2022-10-22T01:30:59.470Z,2.15
2022-10-22T01:33:28.206Z,2.55
2022-10-22T01:35:57.856Z,2.55
2022-10-22T01:38:26.420Z,2.30
2022-10-22T01:40:54.642Z,2.53
2022-10-22T01:43:22.167Z,2.25
2022-10-22T01:45:55.278Z,2.25
2022-10-22T01:48:43.632Z,2.65
2022-10-22T01:51:18.831Z,2.35
2022-10-22T01:57:09.286Z,2.40
2022-10-22T02:00:07.802Z,4.00
2022-10-22T02:02:50.391Z,4.20
2022-10-22T02:05:33.863Z,2.75
2022-10-22T02:08:11.876Z,2.80
2022-10-22T02:10:43.569Z,2.97
2022-10-22T02:13:18.413Z,2.70
2022-10-22T02:15:48.138Z,4.10
2022-10-22T02:18:19.542Z,2.92
2022-10-22T02:20:50.473Z,3.28
2022-10-22T02:23:17.738Z,2.70
2022-10-22T02:25:53.857Z,2.42
2022-10-22T02:28:57.519Z,2.15
2022-10-22T02:31:31.216Z,2.45
2022-10-22T02:34:08.674Z,2.60
2022-10-22T02:36:40.473Z,2.42
2022-10-22T02:39:10.128Z,2.97
2022-10-22T02:41:38.302Z,2.55
2022-10-22T02:44:11.342Z,2.08
2022-10-22T02:46:40.296Z,2.67
2022-10-22T02:49:07.910Z,3.28
2022-10-22T02:51:35.915Z,3.00
2022-10-22T02:54:03.516Z,3.05
2022-10-22T02:56:30.321Z,2.83
2022-10-22T02:58:57.138Z,3.13
2022-10-22T03:01:24.225Z,4.50
2022-10-22T03:03:51.344Z,6.25
2022-10-22T03:06:18.682Z,3.92
2022-10-22T03:08:45.981Z,3.20
2022-10-22T03:11:12.862Z,3.75
2022-10-22T03:13:39.718Z,4.00
2022-10-22T03:16:06.942Z,2.63
2022-10-22T03:18:33.852Z,3.53
2022-10-22T03:21:38.938Z,3.97
2022-10-22T03:24:15.208Z,2.70
2022-10-22T03:26:45.186Z,3.28
2022-10-22T03:29:15.348Z,3.42
2022-10-22T03:31:42.473Z,3.60
2022-10-22T03:34:11.818Z,2.92
2022-10-22T03:36:40.741Z,4.47
2022-10-22T03:39:09.506Z,3.45
2022-10-22T03:41:36.965Z,3.10
2022-10-22T03:44:06.144Z,3.80
2022-10-22T03:46:33.156Z,3.72
2022-10-22T03:48:59.982Z,3.38
2022-10-22T03:51:31.191Z,3.30
2022-10-22T03:53:57.981Z,2.95
2022-10-22T03:56:24.929Z,2.97
2022-10-22T03:58:51.798Z,4.35
2022-10-22T04:01:18.728Z,4.25
2022-10-22T04:03:46.015Z,3.42
2022-10-22T04:06:13.744Z,3.13
2022-10-22T04:08:43.141Z,2.95
2022-10-22T04:11:11.942Z,3.35
2022-10-22T04:13:39.178Z,3.38
2022-10-22T04:16:20.171Z,2.97
2022-10-22T04:18:49.791Z,3.75
2022-10-22T04:21:21.399Z,3.72
2022-10-22T04:23:52.915Z,2.97
2022-10-22T04:26:21.128Z,3.40
2022-10-22T04:28:51.336Z,4.10
2022-10-22T04:31:23.977Z,3.55
2022-10-22T04:33:57.182Z,4.47
2022-10-22T04:36:27.607Z,4.03
2022-10-22T04:39:01.103Z,3.92
2022-10-22T04:41:32.490Z,3.10
2022-10-22T04:44:00.464Z,3.22
2022-10-22T04:46:30.496Z,3.20
2022-10-22T04:48:58.069Z,3.25
2022-10-22T04:51:27.128Z,3.88
2022-10-22T04:53:55.120Z,3.08
2022-10-22T04:56:29.354Z,3.45
2022-10-22T04:59:08.050Z,3.40
2022-10-22T05:01:44.739Z,3.05
2022-10-22T05:04:16.843Z,3.45
2022-10-22T05:06:45.322Z,3.17
2022-10-22T05:09:19.898Z,2.97
2022-10-22T05:11:51.710Z,3.45
2022-10-22T05:14:25.491Z,3.05
2022-10-22T05:16:53.643Z,3.08
2022-10-22T05:19:30.918Z,3.20
2022-10-22T05:22:01.306Z,3.20
2022-10-22T05:24:30.250Z,3.70
2022-10-22T05:26:58.911Z,3.00
2022-10-22T05:29:26.684Z,3.40
2022-10-22T05:31:53.609Z,3.25
2022-10-22T05:34:20.706Z,3.80
2022-10-22T05:36:47.721Z,3.45
2022-10-22T05:39:14.875Z,3.70
2022-10-22T05:41:45.239Z,3.38
2022-10-22T05:44:14.014Z,3.13
2022-10-22T05:46:41.458Z,3.28
2022-10-22T05:49:09.684Z,4.15
2022-10-22T05:51:37.621Z,3.60
2022-10-22T05:54:08.201Z,3.30
2022-10-22T05:56:38.816Z,3.45
2022-10-22T05:59:05.868Z,3.63
2022-10-22T06:01:37.596Z,3.85
2022-10-22T06:04:08.062Z,3.35
2022-10-22T06:06:39.304Z,4.32
2022-10-22T06:09:18.584Z,4.65
2022-10-22T06:11:49.305Z,4.50
2022-10-22T06:14:18.127Z,4.22
2022-10-22T06:16:45.397Z,4.38
2022-10-22T06:19:15.431Z,5.05
2022-10-22T06:21:43.145Z,5.07
2022-10-22T06:24:11.192Z,4.88
2022-10-22T06:26:38.694Z,5.30
2022-10-22T06:29:05.895Z,5.90
2022-10-22T06:31:36.773Z,5.65
2022-10-22T06:34:12.181Z,5.32
2022-10-22T06:36:42.350Z,5.13
2022-10-22T06:39:13.685Z,5.38
2022-10-22T06:41:41.041Z,5.60
2022-10-22T06:44:10.130Z,5.85
2022-10-22T06:46:40.075Z,4.82
2022-10-22T06:49:12.942Z,4.97
2022-10-22T06:51:40.431Z,5.50
2022-10-22T06:54:07.665Z,6.00
2022-10-22T06:56:38.892Z,6.40
2022-10-22T06:59:13.529Z,4.90
2022-10-22T07:01:48.983Z,4.15
2022-10-22T07:04:16.343Z,4.75
2022-10-22T07:06:43.349Z,3.80
2022-10-22T07:09:10.960Z,3.85
2022-10-22T07:11:45.571Z,3.30
2022-10-22T07:14:14.145Z,3.00
2022-10-22T07:16:45.626Z,3.13
2022-10-22T07:19:16.189Z,3.05
2022-10-22T07:21:43.234Z,2.72
2022-10-22T07:24:10.177Z,2.70
2022-10-22T07:26:37.291Z,2.83
2022-10-22T07:29:09.634Z,2.65
2022-10-22T07:31:37.122Z,2.47
2022-10-22T07:34:04.513Z,1.83
2022-10-22T07:36:32.228Z,1.80
2022-10-22T07:39:03.778Z,1.98
2022-10-22T07:41:31.790Z,2.25
2022-10-22T07:44:00.337Z,2.03
2022-10-22T07:46:27.630Z,1.98
2022-10-22T07:48:55.095Z,2.30
2022-10-22T07:51:22.439Z,1.70
2022-10-22T07:53:49.568Z,1.83
2022-10-22T07:56:17.398Z,2.35
2022-10-22T07:58:44.367Z,1.83
2022-10-22T08:01:11.356Z,2.33
2022-10-22T08:03:38.296Z,1.92
2022-10-22T08:06:05.748Z,2.15
2022-10-22T08:08:33.419Z,1.80
2022-10-22T08:11:02.163Z,2.28
2022-10-22T08:13:30.711Z,1.67
2022-10-22T08:16:00.678Z,2.10
2022-10-22T08:18:28.615Z,1.77
2022-10-22T08:20:56.382Z,1.70
2022-10-22T08:23:26.118Z,1.38
2022-10-22T08:25:57.275Z,1.60
2022-10-22T08:28:24.499Z,1.73
2022-10-22T08:30:51.422Z,1.70
2022-10-22T08:33:18.438Z,2.13
2022-10-22T08:35:52.733Z,1.80
2022-10-22T08:38:20.453Z,1.50
2022-10-22T08:40:53.305Z,1.90
2022-10-22T08:43:55.262Z,1.90
2022-10-22T08:47:02.771Z,1.70
2022-10-22T08:49:41.291Z,2.10
2022-10-22T08:52:16.859Z,1.80
2022-10-22T08:54:58.893Z,2.03
2022-10-22T08:58:06.146Z,1.60
2022-10-22T09:00:46.644Z,1.73
2022-10-22T09:03:36.068Z,2.30
2022-10-22T09:06:16.800Z,2.08
2022-10-22T09:08:46.904Z,2.17
2022-10-22T09:11:22.921Z,2.58
2022-10-22T09:13:51.102Z,1.90
2022-10-22T09:16:35.666Z,1.90
2022-10-22T09:19:16.641Z,1.60
2022-10-22T09:21:55.602Z,1.77
2022-10-22T09:24:36.952Z,2.30
2022-10-22T09:27:15.281Z,2.85
2022-10-22T09:29:43.488Z,2.40
2022-10-22T09:32:10.794Z,2.67
2022-10-22T09:34:37.825Z,2.65
2022-10-22T09:37:09.680Z,2.22
2022-10-22T09:39:46.104Z,1.73
2022-10-22T09:42:18.016Z,1.80
2022-10-22T09:44:53.080Z,1.75
2022-10-22T09:50:47.779Z,1.00
2022-10-22T09:53:20.186Z,1.45
2022-10-22T09:56:00.680Z,1.55
2022-10-22T09:58:28.285Z,1.77
2022-10-22T10:01:00.139Z,1.50
2022-10-22T10:03:33.029Z,1.98
2022-10-22T10:06:06.004Z,1.83
2022-10-22T10:08:33.494Z,1.30
2022-10-22T10:11:10.888Z,1.85
2022-10-22T10:14:06.953Z,1.95
2022-10-22T10:17:11.940Z,1.90
2022-10-22T10:20:14.599Z,2.20
2022-10-22T10:23:11.319Z,1.75
2022-10-22T10:25:47.025Z,1.40
2022-10-22T10:28:40.678Z,1.63
2022-10-22T10:31:10.679Z,1.58
2022-10-22T10:33:54.433Z,1.75
2022-10-22T10:36:45.732Z,2.00
2022-10-22T10:39:28.205Z,1.10
2022-10-22T10:42:21.351Z,1.17
2022-10-22T10:45:06.033Z,1.40
2022-10-22T10:47:50.999Z,1.00
2022-10-22T10:51:00.576Z,1.45
2022-10-22T10:54:05.266Z,1.10
2022-10-22T10:56:42.216Z,1.20
2022-10-22T10:59:48.347Z,1.10
2022-10-22T11:02:45.134Z,1.13
2022-10-22T11:05:21.241Z,1.00
2022-10-22T11:08:04.626Z,1.40
2022-10-22T11:11:00.745Z,1.20
2022-10-22T11:13:43.111Z,1.17
2022-10-22T11:17:10.150Z,1.10
2022-10-22T11:23:06.703Z,1.15
2022-10-22T11:25:52.019Z,1.25
2022-10-22T11:28:40.550Z,1.20
2022-10-22T11:31:18.985Z,1.52
2022-10-22T11:34:04.942Z,2.33
2022-10-22T11:36:43.661Z,1.80
2022-10-22T11:39:41.261Z,1.45
2022-10-22T11:42:22.623Z,1.40
2022-10-22T11:45:26.374Z,1.85
2022-10-22T11:48:27.830Z,3.00
2022-10-22T11:51:01.951Z,1.67
2022-10-22T11:53:31.174Z,2.10
2022-10-22T11:56:41.239Z,1.40
2022-10-22T11:59:39.615Z,1.58
2022-10-22T12:02:32.475Z,1.25
2022-10-22T12:05:24.678Z,1.00
2022-10-22T12:08:17.902Z,1.20
2022-10-22T12:11:05.324Z,1.00
2022-10-22T12:14:20.801Z,0.80
2022-10-22T12:17:03.328Z,1.38
2022-10-22T12:19:50.064Z,1.50
2022-10-22T12:22:38.446Z,1.20
2022-10-22T12:25:39.232Z,1.10
2022-10-22T12:28:13.368Z,1.42
2022-10-22T12:30:41.339Z,1.50
2022-10-22T12:33:21.411Z,1.30
2022-10-22T12:35:57.575Z,1.10
2022-10-22T12:38:34.103Z,1.20
2022-10-22T12:41:01.283Z,1.58
2022-10-22T12:43:42.169Z,1.38
2022-10-22T12:46:20.735Z,1.33
2022-10-22T12:48:47.984Z,1.00
2022-10-22T12:51:20.596Z,0.77
2022-10-22T12:54:56.601Z,1.45
2022-10-22T12:57:25.530Z,1.48
2022-10-22T12:59:53.078Z,0.90
2022-10-22T13:02:27.952Z,1.15
2022-10-22T13:05:27.118Z,1.90
2022-10-22T13:08:03.549Z,1.35
2022-10-22T13:10:50.247Z,1.20
2022-10-22T13:14:02.017Z,1.05
2022-10-22T13:16:30.103Z,1.05
2022-10-22T13:18:57.511Z,1.55
2022-10-22T13:21:48.777Z,1.40
2022-10-22T13:24:24.799Z,2.50
2022-10-22T13:26:54.540Z,1.65
2022-10-22T13:29:24.784Z,1.70
2022-10-22T13:32:32.013Z,1.27
2022-10-22T13:35:02.060Z,1.10
2022-10-22T13:37:33.959Z,1.27
2022-10-22T13:40:27.483Z,1.45
2022-10-22T13:43:14.178Z,1.30
2022-10-22T13:45:42.598Z,1.20
2022-10-22T13:48:16.556Z,1.30
2022-10-22T13:50:43.643Z,1.98
2022-10-22T13:53:19.239Z,1.20
2022-10-22T13:56:42.591Z,1.05
2022-10-22T13:59:10.571Z,1.00
2022-10-22T14:01:38.673Z,1.17
2022-10-22T14:04:10.632Z,1.02
2022-10-22T14:06:37.507Z,1.15
2022-10-22T14:09:11.880Z,1.08
2022-10-22T14:11:39.054Z,1.10
2022-10-22T14:14:08.800Z,1.10
2022-10-22T14:16:37.727Z,1.75
2022-10-22T14:19:07.683Z,1.63
2022-10-22T14:21:37.797Z,1.38
2022-10-22T14:24:08.209Z,1.08
2022-10-22T14:26:37.772Z,1.00
2022-10-22T14:33:20.478Z,1.63
2022-10-22T14:35:51.472Z,1.20
2022-10-22T14:38:54.067Z,1.50
2022-10-22T14:41:51.083Z,1.63
2022-10-22T14:44:26.458Z,1.42
2022-10-22T14:47:42.290Z,0.90
2022-10-22T14:50:09.927Z,1.73
2022-10-22T14:52:37.297Z,1.50
2022-10-22T15:06:56.549Z,1.85
2022-10-22T15:09:25.973Z,1.50
2022-10-22T15:11:52.828Z,1.60
2022-10-22T15:14:20.067Z,1.50
2022-10-22T15:16:46.884Z,0.85
2022-10-22T15:19:14.153Z,1.30
2022-10-22T15:24:09.056Z,0.95
2022-10-22T15:26:35.959Z,1.27
2022-10-22T15:29:04.970Z,1.50
2022-10-22T15:32:00.394Z,1.65
2022-10-22T15:34:35.651Z,1.05
2022-10-22T15:37:06.176Z,2.05
2022-10-22T15:39:33.408Z,2.05
2022-10-22T15:42:00.562Z,2.63
2022-10-22T15:44:31.434Z,3.75
2022-10-22T15:46:59.287Z,2.70
2022-10-22T15:49:28.407Z,1.95
2022-10-22T15:51:55.876Z,4.38
2022-10-22T15:54:28.455Z,3.25
2022-10-22T15:57:01.776Z,3.22
2022-10-22T15:59:29.563Z,3.33
2022-10-22T16:01:56.580Z,2.30
2022-10-22T16:04:23.469Z,2.33
2022-10-22T16:06:53.528Z,2.72
2022-10-22T16:09:24.553Z,8.80
2022-10-22T16:16:08.174Z,2.10
2022-10-22T16:18:35.597Z,1.98
2022-10-22T16:21:02.767Z,2.67
2022-10-22T16:23:29.833Z,4.65
2022-10-22T16:25:56.723Z,3.13
2022-10-22T16:28:23.844Z,4.22
2022-10-22T16:30:50.787Z,4.47
2022-10-22T16:33:17.697Z,3.17
2022-10-22T16:35:44.922Z,2.72
2022-10-22T16:38:12.237Z,2.10
2022-10-22T16:41:10.638Z,2.50
2022-10-22T16:48:18.712Z,2.80
2022-10-22T16:50:45.653Z,3.30
2022-10-22T16:53:12.506Z,3.08
2022-10-22T16:55:39.511Z,2.88
2022-10-22T16:59:01.709Z,2.55
2022-10-22T17:01:29.765Z,2.72
2022-10-22T17:04:00.054Z,2.72
2022-10-22T17:06:27.094Z,2.88
2022-10-22T17:08:55.606Z,4.03
2022-10-22T17:11:24.588Z,2.90
2022-10-22T17:13:55.286Z,2.50
2022-10-22T17:16:25.090Z,3.40
2022-10-22T17:18:54.273Z,3.45
2022-10-22T17:21:23.698Z,4.10
2022-10-22T17:23:56.477Z,4.00
2022-10-22T17:26:27.040Z,3.30
2022-10-22T17:28:55.371Z,4.15
2022-10-22T17:31:37.803Z,5.80
2022-10-22T17:34:07.743Z,8.63
2022-10-22T17:36:36.644Z,9.57
2022-10-22T17:39:08.368Z,9.52
2022-10-22T17:41:37.543Z,10.32
2022-10-22T17:44:08.693Z,11.30
2022-10-22T17:46:47.473Z,18.13
2022-10-22T17:49:20.427Z,13.52
2022-10-22T17:52:33.790Z,7.82
2022-10-22T17:55:04.511Z,6.45
2022-10-22T18:00:35.646Z,5.72
2022-10-22T18:03:02.855Z,7.00
2022-10-22T18:05:30.121Z,4.80
2022-10-22T18:07:57.697Z,4.82
2022-10-22T18:10:25.270Z,6.63
2022-10-22T18:12:52.282Z,6.38
2022-10-22T18:15:19.201Z,6.97
2022-10-22T18:17:47.932Z,8.38
2022-10-22T18:20:14.992Z,8.45
2022-10-22T18:22:42.589Z,9.55
2022-10-22T18:25:10.086Z,9.48
2022-10-22T18:27:38.723Z,10.65
2022-10-22T18:30:06.742Z,13.43
2022-10-22T18:32:34.322Z,14.57
2022-10-22T18:35:01.337Z,17.20
2022-10-22T18:37:32.048Z,15.07
2022-10-22T18:39:59.339Z,14.70
2022-10-22T18:42:28.868Z,14.93
2022-10-22T18:44:58.944Z,15.70
2022-10-22T18:47:26.190Z,14.40
2022-10-22T18:49:57.031Z,12.55
2022-10-22T18:52:31.913Z,13.27
2022-10-22T18:54:58.896Z,12.38
2022-10-22T18:57:26.070Z,12.88
2022-10-22T18:59:54.697Z,14.15
2022-10-22T19:02:24.083Z,14.48
2022-10-22T19:04:51.034Z,15.82
2022-10-22T19:07:17.949Z,15.88
2022-10-22T19:09:44.831Z,13.93
2022-10-22T19:12:14.953Z,15.73
2022-10-22T19:14:42.679Z,15.27
2022-10-22T19:17:09.828Z,17.88
2022-10-22T19:19:36.755Z,16.63
2022-10-22T19:22:04.618Z,16.30
2022-10-22T19:24:31.490Z,16.13
2022-10-22T19:26:58.372Z,14.90
2022-10-22T19:29:25.308Z,14.05
2022-10-22T19:31:52.316Z,13.95
2022-10-22T19:34:20.305Z,12.85
2022-10-22T19:36:47.538Z,10.18
2022-10-22T19:39:18.157Z,10.88
2022-10-22T19:41:45.528Z,10.57
2022-10-22T19:44:12.548Z,10.10
2022-10-22T19:46:39.414Z,10.13
2022-10-22T19:49:06.417Z,10.00
2022-10-22T19:51:34.403Z,8.25
2022-10-22T19:54:06.259Z,8.13
2022-10-22T19:56:35.415Z,8.07
2022-10-22T19:59:04.771Z,7.75
2022-10-22T20:01:32.117Z,8.02
2022-10-22T20:04:00.402Z,6.90
2022-10-22T20:06:28.820Z,6.85
2022-10-22T20:08:56.476Z,6.00
2022-10-22T20:11:27.699Z,7.70
2022-10-22T20:13:55.222Z,6.72
2022-10-22T20:16:25.077Z,7.63
2022-10-22T20:18:54.654Z,7.47
2022-10-22T20:21:22.687Z,7.93
2022-10-22T20:23:54.271Z,7.80
2022-10-22T20:26:24.536Z,7.28
2022-10-22T20:28:52.154Z,7.47
2022-10-22T20:31:21.897Z,6.97
2022-10-22T20:33:50.992Z,6.63
2022-10-22T20:36:25.455Z,6.65
2022-10-22T20:38:52.740Z,7.47
2022-10-22T20:41:22.755Z,7.20
2022-10-22T20:43:51.863Z,6.50
2022-10-22T20:46:25.858Z,6.60
2022-10-22T20:48:56.898Z,6.25
2022-10-22T20:51:23.850Z,6.10
2022-10-22T20:53:50.778Z,6.80
2022-10-22T20:56:18.553Z,5.95
2022-10-22T20:58:49.430Z,6.07
2022-10-22T21:01:23.770Z,6.93
2022-10-22T21:03:52.762Z,5.50
2022-10-22T21:06:22.895Z,6.28
2022-10-22T21:08:51.893Z,7.40
2022-10-22T21:11:20.283Z,6.22
2022-10-22T21:13:47.331Z,6.57
2022-10-22T21:16:17.631Z,6.70
2022-10-22T21:18:45.740Z,6.40
2022-10-22T21:21:20.508Z,6.13
2022-10-22T21:23:47.834Z,5.90
2022-10-22T21:26:14.983Z,5.97
2022-10-22T21:28:41.822Z,6.63
2022-10-22T21:31:10.864Z,6.38
2022-10-22T21:33:39.440Z,6.68
2022-10-22T21:36:08.953Z,6.50
2022-10-22T21:38:38.247Z,6.20
2022-10-22T21:41:08.692Z,7.00
2022-10-22T21:43:39.184Z,6.25
2022-10-22T21:46:17.849Z,6.07
2022-10-22T21:48:45.697Z,6.40
2022-10-22T21:51:19.040Z,6.30
2022-10-22T21:53:46.944Z,6.35
2022-10-22T21:56:24.225Z,6.05
2022-10-22T21:58:51.558Z,6.68
2022-10-22T22:01:18.615Z,7.38
2022-10-22T22:03:50.726Z,7.47
2022-10-22T22:06:21.909Z,7.95
2022-10-22T22:08:54.683Z,7.32
2022-10-22T22:11:25.504Z,6.95
2022-10-22T22:13:55.299Z,6.82
2022-10-22T22:16:28.497Z,7.18
2022-10-22T22:18:59.503Z,6.70
2022-10-22T22:21:28.075Z,7.88
2022-10-22T22:23:55.760Z,7.00
2022-10-22T22:26:29.460Z,8.55
2022-10-22T22:28:59.589Z,8.52
2022-10-22T22:31:31.084Z,11.88
2022-10-22T22:34:10.620Z,11.75
2022-10-22T22:36:41.082Z,11.85
2022-10-22T22:39:13.143Z,11.98
2022-10-22T22:41:41.681Z,12.75
2022-10-22T22:44:08.856Z,12.82
2022-10-22T22:46:36.109Z,12.40
2022-10-22T22:49:03.638Z,11.32
2022-10-22T22:51:31.487Z,11.75
2022-10-22T22:54:00.139Z,10.45
2022-10-22T22:56:30.104Z,10.65
2022-10-22T22:58:57.092Z,10.20
2022-10-22T23:01:30.380Z,10.05
2022-10-22T23:04:04.340Z,9.57
2022-10-22T23:06:36.117Z,9.68
2022-10-22T23:09:08.334Z,8.15
2022-10-22T23:11:36.077Z,8.00
2022-10-22T23:14:06.323Z,7.57
2022-10-22T23:16:37.070Z,6.85
2022-10-22T23:19:05.650Z,6.88
2022-10-22T23:21:37.499Z,7.25
2022-10-22T23:24:09.663Z,6.75
2022-10-22T23:26:40.668Z,6.55
2022-10-22T23:29:18.018Z,6.20
2022-10-22T23:31:46.828Z,6.03
2022-10-22T23:36:51.309Z,6.25
2022-10-22T23:39:22.494Z,5.82
2022-10-22T23:41:49.509Z,5.68
2022-10-22T23:44:16.450Z,5.30
2022-10-22T23:46:43.756Z,5.22
2022-10-22T23:49:12.205Z,5.32
2022-10-22T23:51:39.683Z,6.10
2022-10-22T23:54:12.077Z,4.93
2022-10-22T23:56:39.048Z,5.15
2022-10-22T23:59:06.123Z,4.78
